Plano, TX

12:17 AM CDT on May 05, 2015 (GMT -0500)
Kimberlea | | Change Station
CLOSE
Current Station
Personal Weather Station
Location: Plano, TX
Elevation: 760 ft
Nearby Weather Stations

Elev 760 ft 33.04 °N, 96.76 °W | Updated 4 seconds ago

Clear
Clear
71.0 °F
Feels Like 73 °F
N
0.0
Wind Variable Wind from SSE
Gusts 10.0 mph

Today
High -- | Low -- °F
--% Chance of Precip.
Yesterday
High -- | Low -- °F
Precip. -- in
6:35 AM 8:12 PM
Full, 99% visible
Pressure 30.05 in
Visibility 10.0 miles
Clouds Clear
Heat Index 73 °F
Dew Point 62 °F
Humidity 73%
Rainfall 0.00 in
Snow Depth Not available.
UV 0 out of 12
Pollen 7.80 out of 12
Air Quality Not available.
Flu Activity Sporadic
METAR KADS 050455Z AUTO 13007KT 10SM CLR 22/14 A3005 RMK AO2 T02170136

More Conditions Fewer Conditions

Pressure 30.05 in
Visibility 10.0 miles
Clouds Clear
Heat Index 73 °F
Dew Point 62 °F
Humidity 73%
Rainfall 0.00 in
Snow Depth Not available.
UV 0 out of 12
Pollen 7.80 out of 12
Air Quality Not available.
Flu Activity Sporadic
METAR KADS 050455Z AUTO 13007KT 10SM CLR 22/14 A3005 RMK AO2 T02170136

More Conditions Fewer Conditions

Nepal has a long way to go to dig out and rebuild from a devastating earthquake. We have teamed up with several charities and organizations to make contributing to the relief effort as easy as possible.
How you can help: Portlight Strategies | Red Cross

10-Day Weather Forecast

Almanac

Astronomy

May. 05, 2015 Rise Set
Actual Time
Civil Twilight
Nautical Twilight
Astronomical Twilight
Moon
Length of Visible Light
Length of Day
Tomorrow will be .
, % of the Moon is Illuminated

Today's Extremes

State Highs State Lows

Community

WunderPhotos

Upload Photos

1,818,814 photos uploaded!

WunderBlogs® & News

Nearby

Air Quality

  Air Quality AQ Index Pollutant
Not available.

Snow Depth

Station Depth Elevation

Earthquake Activity

City Distance Mag. Time & Date
Minimum magnitude displayed is 2.5.

Coastal Water Temperatures

Place Temperature

Stations

Nearby Weather Stations

Station Location Temp. Windchill Dew Point Humidity Wind Precip. Elev Updated Type